createdAt,value
2023-03-29T00:00:38.298Z,69.6672
2023-03-29T00:02:41.472Z,70.7790
2023-03-29T00:03:43.047Z,72.3580
2023-03-29T00:04:43.004Z,72.8899
2023-03-29T00:05:43.039Z,74.1365
2023-03-29T00:06:43.049Z,75.2290
2023-03-29T00:07:44.268Z,76.2498
2023-03-29T00:08:44.394Z,76.1909
2023-03-29T00:09:45.642Z,76.7899
2023-03-29T00:10:45.732Z,76.9995
2023-03-29T00:11:46.953Z,76.7394
2023-03-29T00:12:48.283Z,77.6985
2023-03-29T00:13:49.526Z,76.6929
2023-03-29T00:14:50.929Z,73.8318
2023-03-29T00:15:52.111Z,74.7373
2023-03-29T00:16:53.690Z,74.8258
2023-03-29T00:17:55.082Z,72.9780
2023-03-29T00:18:55.172Z,73.5857
2023-03-29T00:19:56.427Z,73.8593
2023-03-29T00:20:57.813Z,73.0457
2023-03-29T00:21:59.037Z,72.6645
2023-03-29T00:22:59.476Z,72.7514
2023-03-29T00:24:00.674Z,72.3939
2023-03-29T00:25:00.714Z,72.5486
2023-03-29T00:26:02.031Z,71.7168
2023-03-29T00:27:03.565Z,71.8235
2023-03-29T00:28:04.854Z,72.8279
2023-03-29T00:29:06.219Z,74.1805
2023-03-29T00:30:07.429Z,71.5788
2023-03-29T00:31:08.898Z,72.3221
2023-03-29T00:32:10.207Z,70.5940
2023-03-29T00:33:10.357Z,69.3737
2023-03-29T00:34:11.622Z,67.3046
2023-03-29T00:35:11.631Z,64.6314
2023-03-29T00:36:12.907Z,67.0614
2023-03-29T00:37:12.974Z,68.7518
2023-03-29T00:38:14.181Z,68.3346
2023-03-29T00:39:15.492Z,68.4312
2023-03-29T00:40:16.803Z,66.4777
2023-03-29T00:41:17.186Z,68.3933
2023-03-29T00:42:18.386Z,68.8255
2023-03-29T00:43:18.479Z,68.3157
2023-03-29T00:44:19.791Z,65.1104
2023-03-29T00:45:21.228Z,65.3490
2023-03-29T00:46:22.659Z,64.3043
2023-03-29T00:47:22.957Z,65.3822
2023-03-29T00:48:24.369Z,66.5081
2023-03-29T00:49:24.369Z,66.6209
2023-03-29T00:50:25.571Z,66.3041
2023-03-29T00:51:26.956Z,67.6131
2023-03-29T00:52:28.231Z,67.9705
2023-03-29T00:53:29.679Z,68.9422
2023-03-29T00:54:30.959Z,69.0535
2023-03-29T00:55:32.392Z,67.5310
2023-03-29T00:56:32.488Z,67.4658
2023-03-29T00:57:34.012Z,65.7197
2023-03-29T00:58:35.246Z,65.2801
2023-03-29T00:59:36.724Z,64.5624
2023-03-29T01:00:38.048Z,66.4223
2023-03-29T01:01:38.179Z,66.7937
2023-03-29T01:02:38.456Z,65.0544
2023-03-29T01:03:40.163Z,62.9949
2023-03-29T01:04:41.444Z,63.0223
2023-03-29T01:05:42.750Z,63.2265
2023-03-29T01:06:43.864Z,63.1123
2023-03-29T01:07:44.524Z,63.5047
2023-03-29T01:08:45.745Z,65.0771
2023-03-29T01:09:45.852Z,64.2812
2023-03-29T01:10:47.126Z,64.1135
2023-03-29T01:11:48.483Z,64.5197
2023-03-29T01:12:49.715Z,65.0054
2023-03-29T01:13:51.205Z,65.2574
2023-03-29T01:14:52.484Z,66.0519
2023-03-29T01:15:53.932Z,66.0777
2023-03-29T01:16:55.338Z,65.9475
2023-03-29T01:17:55.683Z,67.0562
2023-03-29T01:18:55.798Z,66.4102
2023-03-29T01:29:06.493Z,64.3444
2023-03-29T01:30:07.869Z,65.0137
2023-03-29T01:31:09.164Z,65.4163
2023-03-29T01:32:09.230Z,64.2075
2023-03-29T01:33:10.549Z,63.3396
2023-03-29T01:34:11.913Z,62.4516
2023-03-29T01:35:11.990Z,63.1797
2023-03-29T01:36:13.538Z,64.2567
2023-03-29T01:37:14.756Z,65.1555
2023-03-29T01:38:16.127Z,64.4210
2023-03-29T01:39:17.396Z,65.4510
2023-03-29T01:40:18.736Z,65.5695
2023-03-29T01:41:20.038Z,63.4138
2023-03-29T01:42:21.529Z,63.1421
2023-03-29T01:43:23.553Z,63.8437
2023-03-29T01:44:23.385Z,65.5694
2023-03-29T01:45:24.715Z,64.9441
2023-03-29T01:46:24.817Z,65.1640
2023-03-29T01:47:24.892Z,65.0615
2023-03-29T01:48:26.106Z,64.8148
2023-03-29T01:49:27.413Z,64.8574
2023-03-29T01:50:28.627Z,64.8439
2023-03-29T01:51:29.950Z,66.1963
2023-03-29T01:52:31.202Z,66.1670
2023-03-29T01:53:31.245Z,66.5277
2023-03-29T01:54:32.612Z,66.5368
2023-03-29T02:04:41.706Z,68.2374
2023-03-29T02:05:41.763Z,67.1522
2023-03-29T02:06:42.986Z,66.3575
2023-03-29T02:07:44.301Z,67.5349
2023-03-29T02:08:45.526Z,67.0970
2023-03-29T02:09:45.589Z,65.5776
2023-03-29T02:10:45.714Z,65.5459
2023-03-29T02:11:47.163Z,66.0879
2023-03-29T02:12:48.534Z,67.6210
2023-03-29T02:13:48.471Z,66.3824
2023-03-29T02:14:48.550Z,65.6685
2023-03-29T02:15:50.041Z,66.1094
2023-03-29T02:16:50.082Z,67.8621
2023-03-29T02:17:51.428Z,69.0090
2023-03-29T02:18:51.702Z,68.2623
2023-03-29T02:19:53.069Z,66.7575
2023-03-29T02:20:53.159Z,67.8285
2023-03-29T02:21:53.144Z,69.7908
2023-03-29T02:22:54.438Z,70.5413
2023-03-29T02:28:59.466Z,67.0134
2023-03-29T02:29:59.500Z,68.7602
2023-03-29T02:31:01.045Z,67.9071
2023-03-29T02:32:01.704Z,67.9727
2023-03-29T02:33:01.777Z,67.2779
2023-03-29T02:34:01.870Z,67.0547
2023-03-29T02:35:01.908Z,66.6885
2023-03-29T02:36:02.023Z,67.6087
2023-03-29T02:37:02.130Z,66.6047
2023-03-29T02:38:03.530Z,68.0875
2023-03-29T02:39:03.684Z,67.9393
2023-03-29T02:40:04.986Z,66.6096
2023-03-29T02:41:06.493Z,66.3394
2023-03-29T02:42:07.785Z,65.6287
2023-03-29T02:44:09.035Z,68.5638
2023-03-29T02:45:10.376Z,71.1479
2023-03-29T02:46:10.472Z,72.0787
2023-03-29T02:47:10.558Z,69.3693
2023-03-29T02:48:10.669Z,67.4150
2023-03-29T02:49:12.038Z,68.4524
2023-03-29T02:50:13.702Z,69.4273
2023-03-29T02:51:15.916Z,67.8345
2023-03-29T02:52:15.922Z,68.5242
2023-03-29T02:53:15.955Z,67.8115
2023-03-29T02:54:17.338Z,67.4039
2023-03-29T02:55:17.423Z,65.6966
2023-03-29T02:56:18.638Z,67.9761
2023-03-29T02:57:20.221Z,70.9146
2023-03-29T02:58:20.236Z,71.0194
2023-03-29T02:59:21.580Z,70.6800
2023-03-29T03:00:21.672Z,71.7357
2023-03-29T03:01:23.092Z,70.0470
2023-03-29T03:02:23.335Z,71.9325
2023-03-29T03:03:23.954Z,72.3781
2023-03-29T03:04:24.308Z,70.3218
2023-03-29T03:05:25.614Z,68.8467
2023-03-29T03:06:25.752Z,69.2776
2023-03-29T03:07:27.024Z,67.7617
2023-03-29T03:09:29.787Z,66.3060
2023-03-29T03:11:31.124Z,68.0479
2023-03-29T03:12:31.477Z,68.1902
2023-03-29T03:13:32.753Z,67.1707
2023-03-29T03:14:33.101Z,67.4898
2023-03-29T03:15:34.401Z,67.6600
2023-03-29T03:16:34.865Z,67.8269
2023-03-29T03:17:34.856Z,69.6558
2023-03-29T03:18:36.149Z,69.8977
2023-03-29T03:19:36.286Z,68.1524
2023-03-29T03:20:37.553Z,68.8964
2023-03-29T03:21:38.538Z,67.5793
2023-03-29T03:22:39.867Z,68.6852
2023-03-29T03:23:39.981Z,69.4571
2023-03-29T03:27:42.479Z,69.1084
2023-03-29T03:28:42.539Z,69.0105
2023-03-29T03:29:43.922Z,69.4699
2023-03-29T03:30:44.086Z,68.0811
2023-03-29T03:31:44.191Z,64.2749
2023-03-29T03:32:44.304Z,63.5106
2023-03-29T03:33:45.638Z,66.0299
2023-03-29T03:34:47.182Z,66.6229
2023-03-29T03:35:48.512Z,66.8155
2023-03-29T03:36:48.633Z,66.4665
2023-03-29T03:37:49.942Z,68.0309
2023-03-29T03:38:51.442Z,69.8441
2023-03-29T03:39:52.731Z,68.6936
2023-03-29T03:41:55.400Z,66.8486
2023-03-29T03:42:55.759Z,66.8888
2023-03-29T03:43:56.277Z,68.3049
2023-03-29T03:44:56.324Z,68.3020
2023-03-29T03:45:56.586Z,67.4109
2023-03-29T03:46:57.090Z,68.2541
2023-03-29T03:47:57.200Z,67.3511
2023-03-29T03:48:57.383Z,69.6958
2023-03-29T03:49:57.417Z,70.7325
2023-03-29T03:50:57.441Z,71.2019
2023-03-29T03:51:58.788Z,70.3243
2023-03-29T03:52:58.928Z,70.3445
2023-03-29T03:54:00.250Z,69.5791
2023-03-29T03:55:01.789Z,70.7546
2023-03-29T03:56:03.148Z,71.8504
2023-03-29T03:57:04.825Z,70.1215
2023-03-29T03:58:06.109Z,69.6357
2023-03-29T03:59:06.341Z,70.2867
2023-03-29T04:00:07.692Z,71.4232
2023-03-29T04:01:07.680Z,69.0968
2023-03-29T04:02:07.824Z,67.7515
2023-03-29T04:03:08.093Z,67.4520
2023-03-29T04:04:09.167Z,67.8874
2023-03-29T04:05:09.459Z,69.1226
2023-03-29T04:06:09.495Z,70.4870
2023-03-29T04:07:10.744Z,69.0290
2023-03-29T04:08:12.158Z,66.9832
2023-03-29T04:09:13.480Z,69.4521
2023-03-29T04:10:13.640Z,70.7911
2023-03-29T04:11:14.909Z,71.1736
2023-03-29T04:12:15.031Z,71.7189
2023-03-29T04:13:16.337Z,67.7910
2023-03-29T04:14:17.840Z,65.5353
2023-03-29T04:15:17.855Z,67.2304
2023-03-29T04:16:18.067Z,67.7602
2023-03-29T04:17:18.189Z,68.5867
2023-03-29T04:18:18.770Z,66.3678
2023-03-29T04:19:20.085Z,67.1303
2023-03-29T04:20:20.389Z,67.4133
2023-03-29T04:21:21.659Z,67.0387
2023-03-29T04:22:21.915Z,67.6802
2023-03-29T04:34:35.111Z,65.2444
2023-03-29T04:35:35.523Z,64.2730
2023-03-29T04:36:36.744Z,64.8774
2023-03-29T04:37:38.372Z,66.0810
2023-03-29T04:38:38.367Z,67.3675
2023-03-29T04:39:38.593Z,67.4989
2023-03-29T04:40:38.681Z,65.9175
2023-03-29T04:41:40.040Z,67.1716
2023-03-29T04:42:40.082Z,67.1079
2023-03-29T04:43:41.452Z,66.0024
2023-03-29T04:44:42.981Z,64.8795
2023-03-29T04:45:43.017Z,66.0546
2023-03-29T04:46:43.247Z,64.4532
2023-03-29T04:47:43.281Z,65.2921
2023-03-29T04:48:43.308Z,66.4510
2023-03-29T04:49:43.433Z,67.5382
2023-03-29T04:50:44.674Z,66.7900
2023-03-29T04:51:44.998Z,65.2653
2023-03-29T04:52:46.546Z,62.2182
2023-03-29T04:53:46.669Z,61.1359
2023-03-29T04:54:47.978Z,60.4670
2023-03-29T04:55:48.089Z,58.7686
2023-03-29T04:56:49.431Z,57.8832
2023-03-29T04:57:49.512Z,57.2438
2023-03-29T04:58:50.772Z,58.0288
2023-03-29T04:59:52.113Z,58.2851
2023-03-29T05:00:52.280Z,57.2243
2023-03-29T05:01:52.348Z,57.7385
2023-03-29T05:02:52.650Z,58.1138
2023-03-29T05:03:52.761Z,58.5071
2023-03-29T05:04:53.157Z,58.0169
2023-03-29T05:05:53.240Z,58.0407
2023-03-29T05:06:53.422Z,58.0493
2023-03-29T05:07:54.833Z,58.3792
2023-03-29T05:08:55.226Z,58.7972
2023-03-29T05:09:55.460Z,58.5587
2023-03-29T05:10:55.773Z,57.5803
2023-03-29T05:11:55.983Z,56.7528
2023-03-29T05:12:56.097Z,56.6907
2023-03-29T05:13:56.218Z,56.7692
2023-03-29T05:14:56.463Z,56.8364
2023-03-29T05:15:57.360Z,58.2482
2023-03-29T05:16:57.594Z,59.9476
2023-03-29T05:17:58.186Z,59.2119
2023-03-29T05:18:58.585Z,57.1089
2023-03-29T05:19:59.171Z,57.5293
2023-03-29T05:20:59.878Z,58.1650
2023-03-29T05:22:00.594Z,57.4891
2023-03-29T05:23:00.642Z,57.9724
2023-03-29T05:24:01.941Z,58.7076
2023-03-29T05:25:02.110Z,58.8434
2023-03-29T05:26:03.451Z,58.9954
2023-03-29T05:27:03.610Z,59.7268
2023-03-29T05:28:03.679Z,60.0858
2023-03-29T05:29:03.640Z,60.1838
2023-03-29T05:30:03.777Z,59.3815
2023-03-29T05:31:04.273Z,59.6537
2023-03-29T05:32:04.853Z,58.9282
2023-03-29T05:33:04.885Z,58.5479
2023-03-29T05:34:06.363Z,58.8925
2023-03-29T05:35:06.472Z,57.9275
2023-03-29T05:36:06.823Z,57.4023
2023-03-29T05:37:07.086Z,57.6345
2023-03-29T05:38:07.248Z,61.3892
2023-03-29T05:39:07.323Z,61.4442
2023-03-29T05:40:08.127Z,61.8443
2023-03-29T05:41:09.284Z,59.4506
2023-03-29T05:42:09.579Z,59.1856
2023-03-29T05:43:09.458Z,59.1398
2023-03-29T05:44:09.624Z,58.9220
2023-03-29T05:46:10.862Z,58.3608
2023-03-29T05:47:11.214Z,59.7437
2023-03-29T05:48:11.290Z,59.9553
2023-03-29T05:49:11.546Z,59.2341
2023-03-29T05:50:11.678Z,60.1483
2023-03-29T05:51:12.552Z,59.3276
2023-03-29T05:52:12.717Z,59.2497
2023-03-29T05:53:12.874Z,59.1947
2023-03-29T05:54:14.248Z,60.0817
2023-03-29T05:55:14.381Z,60.5093
2023-03-29T05:56:14.494Z,61.5025
2023-03-29T05:57:14.706Z,60.9582
2023-03-29T05:58:14.870Z,60.9198
2023-03-29T05:59:15.033Z,61.6798
2023-03-29T06:00:15.058Z,61.4411
2023-03-29T06:01:15.810Z,61.4157
2023-03-29T06:02:15.952Z,61.5900
2023-03-29T06:03:22.553Z,61.2464
2023-03-29T06:04:23.155Z,62.2125
2023-03-29T06:05:23.331Z,61.8851
2023-03-29T06:06:24.783Z,61.7942
2023-03-29T06:07:24.939Z,62.1762
2023-03-29T06:08:25.071Z,62.6981
2023-03-29T06:09:25.355Z,62.4635
2023-03-29T06:16:29.731Z,60.4680
2023-03-29T06:17:30.226Z,60.9634
2023-03-29T06:18:30.814Z,62.0886
2023-03-29T06:19:30.843Z,60.8557
2023-03-29T06:20:30.931Z,60.0776
2023-03-29T06:21:31.127Z,58.7070
2023-03-29T06:22:32.498Z,58.7714
2023-03-29T06:23:32.572Z,58.4038
2023-03-29T06:24:33.023Z,57.7999
2023-03-29T06:25:34.114Z,58.6609
2023-03-29T06:26:34.399Z,59.0071
2023-03-29T06:27:34.497Z,60.2045
2023-03-29T06:28:34.540Z,58.0554
2023-03-29T06:29:34.786Z,59.5626
2023-03-29T06:30:35.747Z,59.6137
2023-03-29T06:31:36.531Z,60.2665
2023-03-29T06:32:36.874Z,59.2284
2023-03-29T06:33:37.047Z,61.1058
2023-03-29T06:34:38.576Z,60.6033
2023-03-29T06:35:37.599Z,57.9097
2023-03-29T06:36:37.692Z,59.4745
2023-03-29T06:37:37.910Z,59.1359
2023-03-29T06:38:37.927Z,58.5842
2023-03-29T06:39:38.173Z,58.2345
2023-03-29T06:40:38.203Z,58.9073
2023-03-29T06:41:38.231Z,58.5998
2023-03-29T06:42:38.379Z,57.8133
2023-03-29T06:43:38.393Z,58.4551
2023-03-29T06:44:38.414Z,57.9744
2023-03-29T06:45:38.668Z,57.4272
2023-03-29T06:46:39.019Z,56.0990
2023-03-29T06:47:39.086Z,57.1731
2023-03-29T06:48:39.362Z,56.8977
2023-03-29T06:49:39.387Z,57.3170
2023-03-29T06:50:39.493Z,57.2457
2023-03-29T06:51:39.532Z,56.7955
2023-03-29T06:52:39.731Z,56.4334
2023-03-29T06:53:41.104Z,57.2817
2023-03-29T06:54:41.260Z,59.1039
2023-03-29T06:55:41.661Z,57.7914
2023-03-29T06:56:43.121Z,58.0425
2023-03-29T06:57:43.635Z,58.2653
2023-03-29T06:58:43.681Z,57.6628
2023-03-29T06:59:43.955Z,56.3325
2023-03-29T07:00:44.403Z,56.3280
2023-03-29T07:01:44.854Z,55.8099
2023-03-29T07:02:44.906Z,56.3351
2023-03-29T07:03:46.732Z,57.1559
2023-03-29T07:04:47.149Z,56.2651
2023-03-29T07:05:47.428Z,56.0483
2023-03-29T07:06:47.476Z,56.5893
2023-03-29T07:07:47.764Z,57.5751
2023-03-29T07:08:47.956Z,58.5048
2023-03-29T07:09:48.006Z,58.5593
2023-03-29T07:10:48.121Z,61.8349
2023-03-29T07:11:48.332Z,64.1893
2023-03-29T07:12:48.516Z,65.8574
2023-03-29T07:13:49.043Z,64.8706
2023-03-29T07:14:49.124Z,65.0901
2023-03-29T07:15:49.242Z,67.6636
2023-03-29T07:16:49.326Z,67.4663
2023-03-29T07:17:49.548Z,68.4904
2023-03-29T07:18:49.565Z,69.1694
2023-03-29T07:19:49.636Z,69.5352
2023-03-29T07:20:49.815Z,70.4229
2023-03-29T07:21:49.852Z,69.5824
2023-03-29T07:22:49.862Z,70.1320
2023-03-29T07:23:50.079Z,69.6205
2023-03-29T07:24:50.085Z,69.0761
2023-03-29T07:25:50.114Z,68.0645
2023-03-29T07:27:03.261Z,68.9162
2023-03-29T07:27:50.684Z,69.2765
2023-03-29T07:28:50.730Z,68.3081
2023-03-29T07:29:50.877Z,68.3348
2023-03-29T07:30:51.569Z,68.1081
2023-03-29T07:31:51.778Z,68.7234
2023-03-29T07:32:52.234Z,68.7974
2023-03-29T07:33:53.332Z,67.0032
2023-03-29T07:34:53.446Z,68.9034
2023-03-29T07:35:53.518Z,68.9829
2023-03-29T07:36:53.781Z,69.0845
2023-03-29T07:37:53.781Z,68.7702
2023-03-29T07:38:56.301Z,69.1650
2023-03-29T07:39:55.289Z,68.6666
2023-03-29T07:40:55.504Z,68.9634
2023-03-29T07:41:55.532Z,69.4616
2023-03-29T07:42:55.561Z,68.7448
2023-03-29T07:43:55.718Z,65.1037
2023-03-29T07:44:55.734Z,64.1977
2023-03-29T07:45:55.989Z,66.8291
2023-03-29T07:46:56.170Z,66.0834
2023-03-29T07:47:56.478Z,66.9291
2023-03-29T07:48:56.658Z,66.7498
2023-03-29T07:49:57.000Z,61.9615
2023-03-29T07:50:57.082Z,64.6299
2023-03-29T07:51:57.848Z,68.4905
2023-03-29T07:52:58.126Z,67.5630
2023-03-29T07:53:58.255Z,66.8342
2023-03-29T07:54:58.495Z,67.5043
2023-03-29T07:55:58.590Z,65.3066
2023-03-29T07:56:58.826Z,63.5892
2023-03-29T07:57:59.167Z,62.9626
2023-03-29T07:58:59.321Z,63.6519
2023-03-29T07:59:59.548Z,63.2643
2023-03-29T08:00:59.772Z,62.0519
2023-03-29T08:02:00.918Z,61.1357
2023-03-29T08:03:01.040Z,63.7377
2023-03-29T08:04:01.414Z,64.5251
2023-03-29T08:05:01.983Z,63.6776
2023-03-29T08:06:02.585Z,65.0472
2023-03-29T08:07:02.730Z,64.8684
2023-03-29T08:08:02.830Z,65.1715
2023-03-29T08:09:03.122Z,65.4507
2023-03-29T08:10:03.314Z,63.2398
2023-03-29T08:11:03.687Z,64.5438
2023-03-29T08:12:04.020Z,63.3870
2023-03-29T08:13:04.089Z,61.4727
2023-03-29T08:14:04.248Z,63.6621
2023-03-29T08:15:04.432Z,64.8290
2023-03-29T08:16:04.842Z,66.2497
2023-03-29T08:17:05.130Z,64.4971
2023-03-29T08:18:05.904Z,63.8436
2023-03-29T08:19:06.711Z,65.6753
2023-03-29T08:20:07.307Z,66.3221
2023-03-29T08:21:07.901Z,65.5561
2023-03-29T08:22:07.924Z,65.9365
2023-03-29T08:23:08.234Z,65.6196
2023-03-29T08:24:08.507Z,66.8161
2023-03-29T08:25:09.779Z,66.3380
2023-03-29T08:26:09.924Z,65.5554
2023-03-29T08:27:10.251Z,66.3794
2023-03-29T08:28:10.387Z,67.2146
2023-03-29T08:29:10.485Z,66.7092
2023-03-29T08:30:10.742Z,66.0814
2023-03-29T08:31:11.417Z,66.9966
2023-03-29T08:32:11.654Z,65.5629
2023-03-29T08:33:12.058Z,66.0215
2023-03-29T08:34:12.501Z,64.2204
2023-03-29T08:35:12.715Z,66.1941
2023-03-29T08:36:13.044Z,64.3988
2023-03-29T08:37:13.140Z,63.6647
2023-03-29T08:38:13.333Z,64.1247
2023-03-29T08:39:13.646Z,63.1884
2023-03-29T08:40:13.712Z,63.5331
2023-03-29T08:41:14.553Z,63.3884
2023-03-29T08:42:14.585Z,63.2181
2023-03-29T08:43:14.662Z,63.6258
2023-03-29T08:44:14.938Z,62.8436
2023-03-29T08:45:15.006Z,62.4475
2023-03-29T08:46:15.317Z,61.6899
2023-03-29T08:47:16.202Z,60.7998
2023-03-29T08:48:16.663Z,61.7836
2023-03-29T08:49:16.830Z,61.9464
2023-03-29T08:50:16.952Z,63.5267
2023-03-29T08:51:18.016Z,60.2085
2023-03-29T08:52:18.174Z,62.1483
2023-03-29T08:53:19.409Z,63.3915
2023-03-29T08:54:19.569Z,63.2274
2023-03-29T08:55:19.904Z,60.4367
2023-03-29T08:56:20.051Z,59.8500
2023-03-29T08:57:20.710Z,60.8588
2023-03-29T08:58:20.860Z,59.1027
2023-03-29T08:59:21.318Z,60.9215
2023-03-29T09:00:21.406Z,60.9780
2023-03-29T09:01:21.521Z,59.7891
2023-03-29T09:02:21.979Z,59.6521
2023-03-29T09:03:22.492Z,59.8328
2023-03-29T09:04:22.781Z,59.2689
2023-03-29T09:05:22.947Z,57.0346
2023-03-29T09:06:23.212Z,57.8766
2023-03-29T09:07:26.463Z,57.7409
2023-03-29T09:08:24.041Z,58.7722
2023-03-29T09:09:25.004Z,58.7501
2023-03-29T09:10:25.210Z,57.6805
2023-03-29T09:11:25.512Z,57.9232
2023-03-29T09:12:25.612Z,57.6481
2023-03-29T09:13:25.935Z,58.1232
2023-03-29T09:14:26.091Z,58.8667
2023-03-29T09:15:26.395Z,58.8539
2023-03-29T09:16:26.486Z,58.5105
2023-03-29T09:17:27.128Z,59.7403
2023-03-29T09:18:27.464Z,60.0828
2023-03-29T09:19:27.659Z,59.2218
2023-03-29T09:20:28.010Z,60.2716
2023-03-29T09:21:28.217Z,61.6859
2023-03-29T09:22:28.297Z,62.6955
2023-03-29T09:23:28.542Z,61.2236
2023-03-29T09:24:28.881Z,60.8564
2023-03-29T09:25:29.094Z,60.0593
2023-03-29T09:26:29.490Z,61.2465
2023-03-29T09:27:29.750Z,60.5654
2023-03-29T09:28:29.907Z,60.7592
2023-03-29T09:29:31.238Z,60.3849
2023-03-29T09:30:31.372Z,60.2980
2023-03-29T09:31:31.817Z,59.4461
2023-03-29T09:32:31.961Z,59.5747
2023-03-29T09:33:32.216Z,59.7685
2023-03-29T09:34:32.324Z,60.3769
2023-03-29T09:35:32.463Z,61.0880
2023-03-29T09:36:32.758Z,60.7078
2023-03-29T09:37:32.869Z,60.8415
2023-03-29T09:38:33.221Z,61.1038
2023-03-29T09:39:33.237Z,60.4308
2023-03-29T09:40:33.359Z,62.5933
2023-03-29T09:41:33.603Z,62.2603
2023-03-29T09:42:33.717Z,60.7999
2023-03-29T09:43:33.768Z,61.7926
2023-03-29T09:44:33.976Z,60.0459
2023-03-29T09:45:34.121Z,61.6018
2023-03-29T09:46:34.520Z,60.7490
2023-03-29T09:47:34.658Z,61.3885
2023-03-29T09:48:35.251Z,60.2943
2023-03-29T09:49:35.356Z,59.1495
2023-03-29T09:50:35.918Z,59.6387
2023-03-29T09:51:36.007Z,59.5135
2023-03-29T09:52:36.315Z,59.6653
2023-03-29T09:53:36.485Z,59.9697
2023-03-29T09:54:36.809Z,59.6960
2023-03-29T09:55:37.073Z,59.6978
2023-03-29T09:56:37.338Z,59.0630
2023-03-29T09:57:37.525Z,59.4401
2023-03-29T09:58:37.894Z,61.1125
2023-03-29T09:59:38.017Z,61.6864
2023-03-29T10:00:38.141Z,61.2326
2023-03-29T10:01:38.794Z,60.8819
2023-03-29T10:02:39.302Z,59.0800
2023-03-29T10:03:39.529Z,59.4551
2023-03-29T10:04:39.994Z,60.9749
2023-03-29T10:05:40.122Z,61.0258
2023-03-29T10:06:40.214Z,60.4445
2023-03-29T10:07:40.434Z,60.1797
2023-03-29T10:08:41.838Z,59.5717
2023-03-29T10:09:42.152Z,59.0777
2023-03-29T10:10:42.567Z,59.6747
2023-03-29T10:11:42.893Z,59.4925
2023-03-29T10:12:43.265Z,59.6321
2023-03-29T10:13:43.366Z,58.8272
2023-03-29T10:14:43.532Z,59.2151
2023-03-29T10:15:44.550Z,58.3439
2023-03-29T10:16:44.775Z,57.4466
2023-03-29T10:17:45.143Z,57.2392
2023-03-29T10:18:45.370Z,60.3753
2023-03-29T10:19:45.650Z,58.6456
2023-03-29T10:20:45.854Z,58.9404
2023-03-29T10:21:46.156Z,59.0332
2023-03-29T10:22:46.300Z,60.3381
2023-03-29T10:23:46.763Z,56.9574
2023-03-29T10:24:46.862Z,57.5142
2023-03-29T10:25:47.135Z,58.1699
2023-03-29T10:26:47.320Z,59.4711
2023-03-29T10:27:47.827Z,59.0234
2023-03-29T10:28:48.049Z,58.7336
2023-03-29T10:29:48.413Z,57.3519
2023-03-29T10:30:48.690Z,56.9364
2023-03-29T10:31:49.257Z,57.3595
2023-03-29T10:32:49.804Z,56.2893
2023-03-29T10:33:50.038Z,57.6511
2023-03-29T10:34:50.515Z,56.7261
2023-03-29T10:35:50.738Z,56.5123
2023-03-29T10:36:51.103Z,56.7953
2023-03-29T10:37:51.581Z,57.0288
2023-03-29T10:38:52.004Z,56.0677
2023-03-29T10:39:52.292Z,53.0194
2023-03-29T10:40:52.723Z,54.1519
2023-03-29T10:41:53.114Z,55.8047
2023-03-29T10:42:53.226Z,53.9909
2023-03-29T10:43:54.376Z,52.1779
2023-03-29T10:44:54.835Z,53.4697
2023-03-29T10:45:55.522Z,53.7873
2023-03-29T10:46:56.782Z,55.3219
2023-03-29T10:47:57.117Z,56.1289
2023-03-29T10:48:57.520Z,55.0773
2023-03-29T10:49:58.652Z,55.7354
2023-03-29T10:50:59.032Z,54.3942
2023-03-29T10:51:59.219Z,51.4030
2023-03-29T10:52:59.806Z,51.4088
2023-03-29T10:54:00.048Z,51.3800
2023-03-29T10:55:00.563Z,52.5666
2023-03-29T10:56:00.757Z,57.3685
2023-03-29T10:57:01.139Z,55.6457
2023-03-29T10:58:01.588Z,56.2666
2023-03-29T10:59:01.811Z,58.7145
2023-03-29T11:00:02.265Z,57.1713
2023-03-29T11:01:02.778Z,58.4361
2023-03-29T11:02:03.539Z,58.4245
2023-03-29T11:03:04.236Z,60.5106
2023-03-29T11:04:05.488Z,60.3838
2023-03-29T11:05:06.067Z,61.1992
2023-03-29T11:06:06.441Z,59.2666
2023-03-29T11:07:06.858Z,59.3293
2023-03-29T11:08:07.086Z,57.7806
2023-03-29T11:09:07.440Z,56.2310
2023-03-29T11:10:07.870Z,57.3887
2023-03-29T11:11:08.348Z,55.3914
2023-03-29T11:12:15.583Z,55.0990
2023-03-29T11:13:09.668Z,55.1292
2023-03-29T11:14:10.476Z,52.6447
2023-03-29T11:15:10.662Z,51.6636
2023-03-29T11:16:11.089Z,52.1357
2023-03-29T11:17:11.330Z,51.8259
2023-03-29T11:18:11.722Z,50.5479
2023-03-29T11:19:12.106Z,51.6160
2023-03-29T11:20:12.530Z,50.5998
2023-03-29T11:21:12.928Z,51.8888
2023-03-29T11:22:13.101Z,51.1695
2023-03-29T11:23:13.506Z,49.2898
2023-03-29T11:24:13.708Z,51.0080
2023-03-29T11:25:14.124Z,50.3266
2023-03-29T11:26:14.490Z,51.1937
2023-03-29T11:27:14.704Z,50.0262
2023-03-29T11:28:15.133Z,48.2423
2023-03-29T11:29:15.289Z,46.0405
2023-03-29T11:30:15.950Z,47.0580
2023-03-29T11:31:16.793Z,48.9731
2023-03-29T11:32:17.112Z,45.5086
2023-03-29T11:33:18.039Z,44.7026
2023-03-29T11:34:18.301Z,45.2960
2023-03-29T11:35:18.678Z,45.0429
2023-03-29T11:36:19.200Z,45.0834
2023-03-29T11:37:19.416Z,43.0811
2023-03-29T11:38:19.940Z,43.4693
2023-03-29T11:39:20.404Z,44.6220
2023-03-29T11:40:20.691Z,45.2237
2023-03-29T11:41:21.109Z,44.2382
2023-03-29T11:42:21.317Z,44.3160
2023-03-29T11:43:21.629Z,43.6432
2023-03-29T11:44:22.008Z,42.5471
2023-03-29T11:45:22.255Z,42.9757
2023-03-29T11:46:22.847Z,44.1939
2023-03-29T11:47:23.511Z,45.2765
2023-03-29T11:48:24.112Z,46.8366
2023-03-29T11:49:24.546Z,46.3809
2023-03-29T11:50:25.975Z,47.3766
2023-03-29T11:51:26.154Z,46.4975
2023-03-29T11:52:26.509Z,46.4733
2023-03-29T11:53:26.769Z,46.4613
2023-03-29T11:54:27.164Z,47.1561
2023-03-29T11:55:27.979Z,47.6061
2023-03-29T11:56:28.253Z,47.4954
2023-03-29T11:57:28.809Z,49.2943
2023-03-29T11:58:29.373Z,48.0864
2023-03-29T11:59:29.667Z,49.1990
2023-03-29T12:00:30.039Z,49.8887
2023-03-29T12:01:30.484Z,49.2913
2023-03-29T12:02:31.249Z,51.5434
2023-03-29T12:03:31.911Z,50.7870
2023-03-29T12:04:33.120Z,51.0213
2023-03-29T12:05:33.531Z,51.5628
2023-03-29T12:06:33.786Z,51.0215
2023-03-29T12:07:34.205Z,51.1269
2023-03-29T12:08:34.539Z,50.2962
2023-03-29T12:09:34.731Z,50.5624
2023-03-29T12:10:35.177Z,51.7399
2023-03-29T12:11:35.352Z,53.2749
2023-03-29T12:12:36.280Z,51.8751
2023-03-29T12:13:36.669Z,52.6615
2023-03-29T12:14:37.348Z,51.9764
2023-03-29T12:15:37.791Z,51.7111
2023-03-29T12:16:38.104Z,52.9124
2023-03-29T12:17:38.739Z,53.1271
2023-03-29T12:18:39.691Z,54.7694
2023-03-29T12:19:42.658Z,53.1072
2023-03-29T12:20:41.183Z,52.5311
2023-03-29T12:21:42.065Z,53.6358
2023-03-29T12:22:42.531Z,51.9860
2023-03-29T12:23:42.711Z,53.4850
2023-03-29T12:24:43.064Z,53.5785
2023-03-29T12:25:43.669Z,53.9489
2023-03-29T12:26:43.927Z,56.2310
2023-03-29T12:27:44.286Z,55.5127
2023-03-29T12:28:44.651Z,55.5850
2023-03-29T12:29:44.954Z,56.0800
2023-03-29T12:30:45.358Z,55.8627
2023-03-29T12:31:45.868Z,56.7209
2023-03-29T12:32:46.473Z,56.5482
2023-03-29T12:33:46.883Z,53.5332
2023-03-29T12:34:47.226Z,53.6573
2023-03-29T12:35:47.535Z,52.7740
2023-03-29T12:36:47.902Z,53.2968
2023-03-29T12:37:48.140Z,53.5052
2023-03-29T12:38:48.486Z,53.7243
2023-03-29T12:39:48.898Z,54.9178
2023-03-29T12:40:49.260Z,54.7902
2023-03-29T12:41:49.584Z,54.2467
2023-03-29T12:42:49.858Z,52.4815
2023-03-29T12:43:50.317Z,52.7071
2023-03-29T12:44:50.866Z,54.3571
2023-03-29T12:45:51.187Z,53.3980
2023-03-29T12:46:52.293Z,54.5214
2023-03-29T12:47:52.763Z,53.1396
2023-03-29T12:48:53.207Z,51.5865
2023-03-29T12:49:53.825Z,51.0661
2023-03-29T12:50:54.051Z,47.9838
2023-03-29T12:51:54.454Z,50.5168
2023-03-29T12:52:54.923Z,51.8362
2023-03-29T12:53:55.115Z,52.0736
2023-03-29T12:54:55.465Z,51.1039
2023-03-29T12:55:55.921Z,52.5037
2023-03-29T12:56:56.685Z,52.6984
2023-03-29T12:57:57.024Z,53.2860
2023-03-29T12:58:57.241Z,56.3033
2023-03-29T12:59:57.662Z,56.4681
2023-03-29T13:00:58.210Z,55.4705
2023-03-29T13:01:58.917Z,56.0062